Strona główna
METAR-TAF:

METAR-TAF

Lotnisko :

Évreux, Francja

Szerokość geograficzna: 49-01N, Długość geograficzna: 001-13E, wysokość: 141 m

Aktualna obserwacja pogody

Raport powstał 45 minut temu, godzina 01:30 UTC
Wiatr 8 kt od południowy zachód
Temperatura 7°C
Wilgotność 87%
Ciśnienie 1015 hPa
Widzialność 10 km lub więcej
Brak chmur poniżej 1500 m i brak chmur cumulonimbus

METAR: LFOE 170130Z AUTO 22008KT CAVOK 07/05 Q1015

czas: 03:15 (02:15 UTC)


TAF: brakujący

Obserwacja i prognoza pogody dla ponad 4000 lotnisk (raport METAR i TAF).

Dostępne stacje oznaczono żółtymi i czerwonymi punktami na mapie.

Najedź kursorem aby zobaczyć nazwę stacji.

Kliknij aby zobaczyć obserwacje i prognozy pogody.

Aby zmienić mapę: kliknij na zielony przycisk z czarnym krzyżykiem, aby powiększyć; na zielony przycisk z myślnikiem, aby pomniejszyć; na zielone strzałki, aby przejść do map sąsiednich.


METAR-TAF: